sensor_id;sensor_type;location;lat;lon;timestamp;temperature;humidity
11700;DHT22;5906;51.660;6.674;2022-09-01T00:01:40;15.50;99.90
11700;DHT22;5906;51.660;6.674;2022-09-01T00:04:10;15.50;99.90
11700;DHT22;5906;51.660;6.674;2022-09-01T00:06:38;15.40;99.90
11700;DHT22;5906;51.660;6.674;2022-09-01T00:09:09;15.40;99.90
11700;DHT22;5906;51.660;6.674;2022-09-01T00:11:38;15.30;99.90
11700;DHT22;5906;51.660;6.674;2022-09-01T00:14:06;15.30;99.90
11700;DHT22;5906;51.660;6.674;2022-09-01T00:16:53;15.30;99.90
11700;DHT22;5906;51.660;6.674;2022-09-01T00:19:22;15.20;99.90
11700;DHT22;5906;51.660;6.674;2022-09-01T00:21:49;15.20;99.90
11700;DHT22;5906;51.660;6.674;2022-09-01T00:24:17;15.10;99.90
11700;DHT22;5906;51.660;6.674;2022-09-01T00:26:44;15.00;99.90
11700;DHT22;5906;51.660;6.674;2022-09-01T00:29:11;15.00;99.90
11700;DHT22;5906;51.660;6.674;2022-09-01T00:31:39;15.00;99.90
11700;DHT22;5906;51.660;6.674;2022-09-01T00:34:06;15.00;99.90
11700;DHT22;5906;51.660;6.674;2022-09-01T00:36:33;15.00;99.90
11700;DHT22;5906;51.660;6.674;2022-09-01T00:39:00;15.00;99.90
11700;DHT22;5906;51.660;6.674;2022-09-01T00:41:30;15.00;99.90
11700;DHT22;5906;51.660;6.674;2022-09-01T00:44:02;15.00;99.90
11700;DHT22;5906;51.660;6.674;2022-09-01T00:46:38;15.00;99.90
11700;DHT22;5906;51.660;6.674;2022-09-01T00:49:19;15.00;99.90
11700;DHT22;5906;51.660;6.674;2022-09-01T00:51:51;15.00;99.90
11700;DHT22;5906;51.660;6.674;2022-09-01T00:54:24;15.00;99.90
11700;DHT22;5906;51.660;6.674;2022-09-01T00:56:52;15.00;99.90
11700;DHT22;5906;51.660;6.674;2022-09-01T00:59:24;15.00;99.90
11700;DHT22;5906;51.660;6.674;2022-09-01T01:01:51;15.00;99.90
11700;DHT22;5906;51.660;6.674;2022-09-01T01:04:20;14.90;99.90
11700;DHT22;5906;51.660;6.674;2022-09-01T01:06:55;14.90;99.90
11700;DHT22;5906;51.660;6.674;2022-09-01T01:09:34;14.90;99.90
11700;DHT22;5906;51.660;6.674;2022-09-01T01:12:03;14.90;99.90
11700;DHT22;5906;51.660;6.674;2022-09-01T01:14:34;15.00;99.90
11700;DHT22;5906;51.660;6.674;2022-09-01T01:17:03;15.00;99.90
11700;DHT22;5906;51.660;6.674;2022-09-01T01:19:46;14.90;99.90
11700;DHT22;5906;51.660;6.674;2022-09-01T01:25:23;14.90;99.90
11700;DHT22;5906;51.660;6.674;2022-09-01T01:27:51;14.90;99.90
11700;DHT22;5906;51.660;6.674;2022-09-01T01:30:19;14.90;99.90
11700;DHT22;5906;51.660;6.674;2022-09-01T01:32:46;14.90;99.90
11700;DHT22;5906;51.660;6.674;2022-09-01T01:35:15;14.90;99.90
11700;DHT22;5906;51.660;6.674;2022-09-01T01:37:43;14.90;99.90
11700;DHT22;5906;51.660;6.674;2022-09-01T01:40:16;15.00;99.90
11700;DHT22;5906;51.660;6.674;2022-09-01T01:42:45;15.00;99.90
11700;DHT22;5906;51.660;6.674;2022-09-01T01:45:15;15.00;99.90
11700;DHT22;5906;51.660;6.674;2022-09-01T01:47:50;15.10;99.90
11700;DHT22;5906;51.660;6.674;2022-09-01T01:50:22;15.00;99.90
11700;DHT22;5906;51.660;6.674;2022-09-01T01:52:49;15.10;99.90
11700;DHT22;5906;51.660;6.674;2022-09-01T01:55:24;15.20;99.90
11700;DHT22;5906;51.660;6.674;2022-09-01T01:57:54;15.30;99.90
11700;DHT22;5906;51.660;6.674;2022-09-01T02:00:26;15.30;99.90
11700;DHT22;5906;51.660;6.674;2022-09-01T02:02:57;15.40;99.90
11700;DHT22;5906;51.660;6.674;2022-09-01T02:05:28;15.40;99.90
11700;DHT22;5906;51.660;6.674;2022-09-01T02:08:05;15.40;99.90
11700;DHT22;5906;51.660;6.674;2022-09-01T02:10:35;15.40;99.90
11700;DHT22;5906;51.660;6.674;2022-09-01T02:13:04;15.40;99.90
11700;DHT22;5906;51.660;6.674;2022-09-01T02:15:34;15.50;99.90
11700;DHT22;5906;51.660;6.674;2022-09-01T02:18:12;15.40;99.90
11700;DHT22;5906;51.660;6.674;2022-09-01T02:20:40;15.40;99.90
11700;DHT22;5906;51.660;6.674;2022-09-01T02:23:07;15.30;99.90
11700;DHT22;5906;51.660;6.674;2022-09-01T02:25:40;15.30;99.90
11700;DHT22;5906;51.660;6.674;2022-09-01T02:28:32;15.30;99.90
11700;DHT22;5906;51.660;6.674;2022-09-01T02:31:01;15.50;99.90
11700;DHT22;5906;51.660;6.674;2022-09-01T02:33:31;15.60;99.90
11700;DHT22;5906;51.660;6.674;2022-09-01T02:36:00;15.60;99.90
11700;DHT22;5906;51.660;6.674;2022-09-01T02:38:28;15.70;99.90
11700;DHT22;5906;51.660;6.674;2022-09-01T02:40:56;15.60;99.90
11700;DHT22;5906;51.660;6.674;2022-09-01T02:43:25;15.60;99.90
11700;DHT22;5906;51.660;6.674;2022-09-01T02:45:56;15.70;99.90
11700;DHT22;5906;51.660;6.674;2022-09-01T02:48:33;15.70;99.90
11700;DHT22;5906;51.660;6.674;2022-09-01T02:51:10;15.70;99.90
11700;DHT22;5906;51.660;6.674;2022-09-01T02:53:38;15.50;99.90
11700;DHT22;5906;51.660;6.674;2022-09-01T02:56:10;15.50;99.90
11700;DHT22;5906;51.660;6.674;2022-09-01T02:58:44;15.40;99.90
11700;DHT22;5906;51.660;6.674;2022-09-01T03:01:26;15.50;99.90
11700;DHT22;5906;51.660;6.674;2022-09-01T03:04:01;15.50;99.90
11700;DHT22;5906;51.660;6.674;2022-09-01T03:06:28;15.50;99.90
11700;DHT22;5906;51.660;6.674;2022-09-01T03:09:00;15.50;99.90
11700;DHT22;5906;51.660;6.674;2022-09-01T03:11:30;15.40;99.90
11700;DHT22;5906;51.660;6.674;2022-09-01T03:13:57;15.40;99.90
11700;DHT22;5906;51.660;6.674;2022-09-01T03:16:24;15.40;99.90
11700;DHT22;5906;51.660;6.674;2022-09-01T03:18:51;15.40;99.90
11700;DHT22;5906;51.660;6.674;2022-09-01T03:21:19;15.40;99.90
11700;DHT22;5906;51.660;6.674;2022-09-01T03:23:47;15.50;99.90
11700;DHT22;5906;51.660;6.674;2022-09-01T03:26:15;15.40;99.90
11700;DHT22;5906;51.660;6.674;2022-09-01T03:28:45;15.40;99.90
11700;DHT22;5906;51.660;6.674;2022-09-01T03:31:11;15.40;99.90
11700;DHT22;5906;51.660;6.674;2022-09-01T03:33:38;15.40;99.90
11700;DHT22;5906;51.660;6.674;2022-09-01T03:36:06;15.40;99.90
11700;DHT22;5906;51.660;6.674;2022-09-01T03:38:41;15.40;99.90
11700;DHT22;5906;51.660;6.674;2022-09-01T03:41:10;15.40;99.90
11700;DHT22;5906;51.660;6.674;2022-09-01T03:43:38;15.40;99.90
11700;DHT22;5906;51.660;6.674;2022-09-01T03:46:13;15.40;99.90
11700;DHT22;5906;51.660;6.674;2022-09-01T03:48:53;15.40;99.90
11700;DHT22;5906;51.660;6.674;2022-09-01T03:51:22;15.40;99.90
11700;DHT22;5906;51.660;6.674;2022-09-01T03:53:51;15.40;99.90
11700;DHT22;5906;51.660;6.674;2022-09-01T03:56:22;15.40;99.90
11700;DHT22;5906;51.660;6.674;2022-09-01T03:58:54;15.40;99.90
11700;DHT22;5906;51.660;6.674;2022-09-01T04:01:23;15.40;99.90
11700;DHT22;5906;51.660;6.674;2022-09-01T04:03:50;15.40;99.90
11700;DHT22;5906;51.660;6.674;2022-09-01T04:06:19;15.30;99.90
11700;DHT22;5906;51.660;6.674;2022-09-01T04:08:50;15.20;99.90
11700;DHT22;5906;51.660;6.674;2022-09-01T04:11:20;15.20;99.90
11700;DHT22;5906;51.660;6.674;2022-09-01T04:13:49;15.20;99.90
11700;DHT22;5906;51.660;6.674;2022-09-01T04:16:25;15.20;99.90
11700;DHT22;5906;51.660;6.674;2022-09-01T04:19:14;15.10;99.90
11700;DHT22;5906;51.660;6.674;2022-09-01T04:21:53;15.10;99.90
11700;DHT22;5906;51.660;6.674;2022-09-01T04:24:22;15.00;99.90
11700;DHT22;5906;51.660;6.674;2022-09-01T04:26:50;15.00;99.90
11700;DHT22;5906;51.660;6.674;2022-09-01T04:29:19;15.00;99.90
11700;DHT22;5906;51.660;6.674;2022-09-01T04:31:49;15.00;99.90
11700;DHT22;5906;51.660;6.674;2022-09-01T04:34:19;15.00;99.90
11700;DHT22;5906;51.660;6.674;2022-09-01T04:36:46;14.90;99.90
11700;DHT22;5906;51.660;6.674;2022-09-01T04:39:17;14.90;99.90
11700;DHT22;5906;51.660;6.674;2022-09-01T04:41:44;14.80;99.90
11700;DHT22;5906;51.660;6.674;2022-09-01T04:44:12;14.80;99.90
11700;DHT22;5906;51.660;6.674;2022-09-01T04:46:44;14.80;99.90
11700;DHT22;5906;51.660;6.674;2022-09-01T04:49:18;14.80;99.90
11700;DHT22;5906;51.660;6.674;2022-09-01T04:51:50;14.90;99.90
11700;DHT22;5906;51.660;6.674;2022-09-01T04:54:20;14.80;99.90
11700;DHT22;5906;51.660;6.674;2022-09-01T04:56:49;14.80;99.90
11700;DHT22;5906;51.660;6.674;2022-09-01T04:59:18;14.80;99.90
11700;DHT22;5906;51.660;6.674;2022-09-01T05:01:48;14.80;99.90
11700;DHT22;5906;51.660;6.674;2022-09-01T05:04:20;14.80;99.90
11700;DHT22;5906;51.660;6.674;2022-09-01T05:06:51;14.80;99.90
11700;DHT22;5906;51.660;6.674;2022-09-01T05:09:23;14.70;99.90
11700;DHT22;5906;51.660;6.674;2022-09-01T05:11:51;14.70;99.90
11700;DHT22;5906;51.660;6.674;2022-09-01T05:14:19;14.70;99.90
11700;DHT22;5906;51.660;6.674;2022-09-01T05:16:49;14.60;99.90
11700;DHT22;5906;51.660;6.674;2022-09-01T05:19:16;14.60;99.90
11700;DHT22;5906;51.660;6.674;2022-09-01T05:21:46;14.60;99.90
11700;DHT22;5906;51.660;6.674;2022-09-01T05:24:17;14.60;99.90
11700;DHT22;5906;51.660;6.674;2022-09-01T05:26:45;14.50;99.90
11700;DHT22;5906;51.660;6.674;2022-09-01T05:29:13;14.40;99.90
11700;DHT22;5906;51.660;6.674;2022-09-01T05:31:44;14.40;99.90
11700;DHT22;5906;51.660;6.674;2022-09-01T05:34:15;14.30;99.90
11700;DHT22;5906;51.660;6.674;2022-09-01T05:36:54;14.30;99.90
11700;DHT22;5906;51.660;6.674;2022-09-01T05:39:21;14.30;99.90
11700;DHT22;5906;51.660;6.674;2022-09-01T05:41:48;14.40;99.90
11700;DHT22;5906;51.660;6.674;2022-09-01T05:44:15;14.40;99.90
11700;DHT22;5906;51.660;6.674;2022-09-01T05:46:44;14.40;99.90
11700;DHT22;5906;51.660;6.674;2022-09-01T05:49:11;14.30;99.90
11700;DHT22;5906;51.660;6.674;2022-09-01T05:51:47;14.30;99.90
11700;DHT22;5906;51.660;6.674;2022-09-01T05:54:19;14.40;99.90
11700;DHT22;5906;51.660;6.674;2022-09-01T05:56:50;14.40;99.90
11700;DHT22;5906;51.660;6.674;2022-09-01T05:59:18;14.40;99.90
11700;DHT22;5906;51.660;6.674;2022-09-01T06:01:52;14.40;99.90
11700;DHT22;5906;51.660;6.674;2022-09-01T06:04:19;14.50;99.90
11700;DHT22;5906;51.660;6.674;2022-09-01T06:06:47;14.60;99.90
11700;DHT22;5906;51.660;6.674;2022-09-01T06:09:39;14.60;99.90
11700;DHT22;5906;51.660;6.674;2022-09-01T06:12:07;14.80;99.90
11700;DHT22;5906;51.660;6.674;2022-09-01T06:14:48;14.70;99.90
11700;DHT22;5906;51.660;6.674;2022-09-01T06:17:17;14.70;99.90
11700;DHT22;5906;51.660;6.674;2022-09-01T06:19:52;14.80;99.90
11700;DHT22;5906;51.660;6.674;2022-09-01T06:22:20;14.80;99.90
11700;DHT22;5906;51.660;6.674;2022-09-01T06:24:50;14.80;99.90
11700;DHT22;5906;51.660;6.674;2022-09-01T06:27:26;14.80;99.90
11700;DHT22;5906;51.660;6.674;2022-09-01T06:29:53;14.90;99.90
11700;DHT22;5906;51.660;6.674;2022-09-01T06:32:20;14.90;99.90
11700;DHT22;5906;51.660;6.674;2022-09-01T06:34:47;15.00;99.90
11700;DHT22;5906;51.660;6.674;2022-09-01T06:37:16;15.10;99.90
11700;DHT22;5906;51.660;6.674;2022-09-01T06:39:48;15.30;99.90
11700;DHT22;5906;51.660;6.674;2022-09-01T06:42:15;15.60;99.90
11700;DHT22;5906;51.660;6.674;2022-09-01T06:44:42;15.90;99.90
11700;DHT22;5906;51.660;6.674;2022-09-01T06:47:09;16.30;99.90
11700;DHT22;5906;51.660;6.674;2022-09-01T06:49:36;16.70;99.90
11700;DHT22;5906;51.660;6.674;2022-09-01T06:52:05;17.10;99.90
11700;DHT22;5906;51.660;6.674;2022-09-01T06:54:32;17.50;99.90
11700;DHT22;5906;51.660;6.674;2022-09-01T06:57:03;17.70;99.90
11700;DHT22;5906;51.660;6.674;2022-09-01T06:59:50;18.00;99.90
11700;DHT22;5906;51.660;6.674;2022-09-01T07:02:20;18.20;99.90
11700;DHT22;5906;51.660;6.674;2022-09-01T07:04:53;18.50;99.90
11700;DHT22;5906;51.660;6.674;2022-09-01T07:07:20;18.70;99.90
11700;DHT22;5906;51.660;6.674;2022-09-01T07:10:08;18.80;99.90
11700;DHT22;5906;51.660;6.674;2022-09-01T07:12:52;18.90;99.90
11700;DHT22;5906;51.660;6.674;2022-09-01T07:15:39;19.10;99.90
11700;DHT22;5906;51.660;6.674;2022-09-01T07:18:27;19.40;99.70
11700;DHT22;5906;51.660;6.674;2022-09-01T07:20:54;19.50;99.30
11700;DHT22;5906;51.660;6.674;2022-09-01T07:23:41;19.70;98.30
11700;DHT22;5906;51.660;6.674;2022-09-01T07:26:29;19.80;97.80
11700;DHT22;5906;51.660;6.674;2022-09-01T07:28:57;20.00;96.70
11700;DHT22;5906;51.660;6.674;2022-09-01T07:31:31;20.10;95.90
11700;DHT22;5906;51.660;6.674;2022-09-01T07:34:16;20.20;95.80
11700;DHT22;5906;51.660;6.674;2022-09-01T07:37:03;20.40;94.90
11700;DHT22;5906;51.660;6.674;2022-09-01T07:39:49;20.60;94.20
11700;DHT22;5906;51.660;6.674;2022-09-01T07:42:18;20.70;93.60
11700;DHT22;5906;51.660;6.674;2022-09-01T07:45:10;20.80;93.90
11700;DHT22;5906;51.660;6.674;2022-09-01T07:47:55;21.00;92.70
11700;DHT22;5906;51.660;6.674;2022-09-01T07:50:22;21.20;91.60
11700;DHT22;5906;51.660;6.674;2022-09-01T07:53:10;21.50;91.00
11700;DHT22;5906;51.660;6.674;2022-09-01T07:55:39;21.50;87.80
11700;DHT22;5906;51.660;6.674;2022-09-01T07:58:09;21.50;85.20
11700;DHT22;5906;51.660;6.674;2022-09-01T08:00:37;21.50;86.80
11700;DHT22;5906;51.660;6.674;2022-09-01T08:03:03;21.50;85.00
11700;DHT22;5906;51.660;6.674;2022-09-01T08:05:30;21.60;84.50
11700;DHT22;5906;51.660;6.674;2022-09-01T08:07:58;21.80;83.00
11700;DHT22;5906;51.660;6.674;2022-09-01T08:10:29;21.90;83.90
11700;DHT22;5906;51.660;6.674;2022-09-01T08:12:59;22.00;82.10
11700;DHT22;5906;51.660;6.674;2022-09-01T08:15:26;22.20;80.00
11700;DHT22;5906;51.660;6.674;2022-09-01T08:18:14;22.20;77.20
11700;DHT22;5906;51.660;6.674;2022-09-01T08:20:42;22.20;74.00
11700;DHT22;5906;51.660;6.674;2022-09-01T08:23:16;22.20;74.90
11700;DHT22;5906;51.660;6.674;2022-09-01T08:25:46;22.30;73.40
11700;DHT22;5906;51.660;6.674;2022-09-01T08:28:14;22.50;71.40
11700;DHT22;5906;51.660;6.674;2022-09-01T08:30:42;22.60;69.90
11700;DHT22;5906;51.660;6.674;2022-09-01T08:33:18;22.60;70.10
11700;DHT22;5906;51.660;6.674;2022-09-01T08:35:47;22.90;68.90
11700;DHT22;5906;51.660;6.674;2022-09-01T08:38:14;22.90;64.90
11700;DHT22;5906;51.660;6.674;2022-09-01T08:40:48;22.80;64.70
11700;DHT22;5906;51.660;6.674;2022-09-01T08:43:48;22.90;64.80
11700;DHT22;5906;51.660;6.674;2022-09-01T08:46:27;23.10;63.60
11700;DHT22;5906;51.660;6.674;2022-09-01T08:49:00;23.30;61.50
11700;DHT22;5906;51.660;6.674;2022-09-01T08:52:42;23.50;59.90
11700;DHT22;5906;51.660;6.674;2022-09-01T08:54:44;23.70;57.10
11700;DHT22;5906;51.660;6.674;2022-09-01T09:00:01;23.70;52.10
11700;DHT22;5906;51.660;6.674;2022-09-01T09:08:09;23.90;51.50
11700;DHT22;5906;51.660;6.674;2022-09-01T09:13:23;23.90;45.50
11700;DHT22;5906;51.660;6.674;2022-09-01T09:16:10;23.80;44.90
11700;DHT22;5906;51.660;6.674;2022-09-01T09:18:58;24.00;46.20
11700;DHT22;5906;51.660;6.674;2022-09-01T09:21:31;24.30;41.20
11700;DHT22;5906;51.660;6.674;2022-09-01T09:26:31;24.70;39.20
11700;DHT22;5906;51.660;6.674;2022-09-01T09:29:13;24.50;37.90
11700;DHT22;5906;51.660;6.674;2022-09-01T09:31:41;24.40;36.50
11700;DHT22;5906;51.660;6.674;2022-09-01T09:34:39;24.70;36.90
11700;DHT22;5906;51.660;6.674;2022-09-01T09:42:27;24.70;34.50
11700;DHT22;5906;51.660;6.674;2022-09-01T09:45:02;24.90;34.00
11700;DHT22;5906;51.660;6.674;2022-09-01T09:47:42;24.70;31.90
11700;DHT22;5906;51.660;6.674;2022-09-01T09:50:30;24.60;31.90
11700;DHT22;5906;51.660;6.674;2022-09-01T09:53:29;24.60;32.60
11700;DHT22;5906;51.660;6.674;2022-09-01T09:56:18;24.60;33.70
11700;DHT22;5906;51.660;6.674;2022-09-01T09:58:47;24.80;32.00
11700;DHT22;5906;51.660;6.674;2022-09-01T10:03:52;25.00;35.00
11700;DHT22;5906;51.660;6.674;2022-09-01T10:06:38;25.10;33.10
11700;DHT22;5906;51.660;6.674;2022-09-01T10:09:14;25.20;32.80
11700;DHT22;5906;51.660;6.674;2022-09-01T10:11:44;25.50;36.50
11700;DHT22;5906;51.660;6.674;2022-09-01T10:14:19;25.70;32.40
11700;DHT22;5906;51.660;6.674;2022-09-01T10:17:09;26.00;32.60
11700;DHT22;5906;51.660;6.674;2022-09-01T10:19:48;26.20;58.30
11700;DHT22;5906;51.660;6.674;2022-09-01T10:22:16;26.10;32.50
11700;DHT22;5906;51.660;6.674;2022-09-01T10:24:43;26.00;29.90
11700;DHT22;5906;51.660;6.674;2022-09-01T10:27:23;26.20;29.90
11700;DHT22;5906;51.660;6.674;2022-09-01T10:30:06;26.10;29.50
11700;DHT22;5906;51.660;6.674;2022-09-01T10:32:57;26.20;29.70
11700;DHT22;5906;51.660;6.674;2022-09-01T10:35:36;26.50;28.30
11700;DHT22;5906;51.660;6.674;2022-09-01T10:38:15;26.60;27.80
11700;DHT22;5906;51.660;6.674;2022-09-01T10:40:48;26.50;28.70
11700;DHT22;5906;51.660;6.674;2022-09-01T10:51:59;26.50;26.20
11700;DHT22;5906;51.660;6.674;2022-09-01T10:57:41;26.40;26.30
11700;DHT22;5906;51.660;6.674;2022-09-01T11:06:03;26.50;25.80
11700;DHT22;5906;51.660;6.674;2022-09-01T11:13:49;26.40;24.10
11700;DHT22;5906;51.660;6.674;2022-09-01T11:19:42;26.60;25.20
11700;DHT22;5906;51.660;6.674;2022-09-01T11:24:48;26.40;25.00
11700;DHT22;5906;51.660;6.674;2022-09-01T11:30:20;26.60;25.70
11700;DHT22;5906;51.660;6.674;2022-09-01T11:32:51;26.70;25.20
11700;DHT22;5906;51.660;6.674;2022-09-01T11:35:25;26.50;22.90
11700;DHT22;5906;51.660;6.674;2022-09-01T11:37:56;26.50;24.50
11700;DHT22;5906;51.660;6.674;2022-09-01T11:40:32;26.30;24.30
11700;DHT22;5906;51.660;6.674;2022-09-01T11:43:07;26.40;24.20
11700;DHT22;5906;51.660;6.674;2022-09-01T11:46:01;26.70;23.90
11700;DHT22;5906;51.660;6.674;2022-09-01T11:48:30;26.90;23.40
11700;DHT22;5906;51.660;6.674;2022-09-01T11:51:00;26.80;23.10
11700;DHT22;5906;51.660;6.674;2022-09-01T11:53:30;26.90;22.40
11700;DHT22;5906;51.660;6.674;2022-09-01T11:56:16;27.20;21.30
11700;DHT22;5906;51.660;6.674;2022-09-01T11:58:43;27.10;22.00
11700;DHT22;5906;51.660;6.674;2022-09-01T12:01:20;27.20;30.80
11700;DHT22;5906;51.660;6.674;2022-09-01T12:03:49;27.50;19.40
11700;DHT22;5906;51.660;6.674;2022-09-01T12:06:22;27.50;20.30
11700;DHT22;5906;51.660;6.674;2022-09-01T12:08:56;27.20;19.40
11700;DHT22;5906;51.660;6.674;2022-09-01T12:11:30;27.20;21.10
11700;DHT22;5906;51.660;6.674;2022-09-01T12:14:03;27.00;21.20
11700;DHT22;5906;51.660;6.674;2022-09-01T12:16:38;26.90;21.40
11700;DHT22;5906;51.660;6.674;2022-09-01T12:19:20;27.10;22.80
11700;DHT22;5906;51.660;6.674;2022-09-01T12:21:59;27.10;21.10
11700;DHT22;5906;51.660;6.674;2022-09-01T12:24:33;27.20;22.10
11700;DHT22;5906;51.660;6.674;2022-09-01T12:27:01;27.50;20.90
11700;DHT22;5906;51.660;6.674;2022-09-01T12:29:28;27.60;20.30
11700;DHT22;5906;51.660;6.674;2022-09-01T12:31:59;27.30;20.50
11700;DHT22;5906;51.660;6.674;2022-09-01T12:34:39;27.20;18.50
11700;DHT22;5906;51.660;6.674;2022-09-01T12:37:19;27.30;19.40
11700;DHT22;5906;51.660;6.674;2022-09-01T12:39:51;27.40;21.50
11700;DHT22;5906;51.660;6.674;2022-09-01T12:52:47;27.50;21.50
11700;DHT22;5906;51.660;6.674;2022-09-01T12:55:29;27.30;21.40
11700;DHT22;5906;51.660;6.674;2022-09-01T12:58:22;27.30;21.40
11700;DHT22;5906;51.660;6.674;2022-09-01T13:03:21;27.70;22.50
11700;DHT22;5906;51.660;6.674;2022-09-01T13:05:51;28.00;20.50
11700;DHT22;5906;51.660;6.674;2022-09-01T13:08:20;28.20;21.40
11700;DHT22;5906;51.660;6.674;2022-09-01T13:10:56;28.30;21.00
11700;DHT22;5906;51.660;6.674;2022-09-01T13:13:25;28.00;28.90
11700;DHT22;5906;51.660;6.674;2022-09-01T13:15:55;27.90;23.40
11700;DHT22;5906;51.660;6.674;2022-09-01T13:18:23;27.90;23.30
11700;DHT22;5906;51.660;6.674;2022-09-01T13:20:51;27.70;24.20
11700;DHT22;5906;51.660;6.674;2022-09-01T13:23:19;27.80;22.10
11700;DHT22;5906;51.660;6.674;2022-09-01T13:25:47;27.80;21.40
11700;DHT22;5906;51.660;6.674;2022-09-01T13:28:15;28.00;20.20
11700;DHT22;5906;51.660;6.674;2022-09-01T13:30:44;28.00;23.90
11700;DHT22;5906;51.660;6.674;2022-09-01T13:33:16;27.80;24.60
11700;DHT22;5906;51.660;6.674;2022-09-01T13:35:46;27.90;29.00
11700;DHT22;5906;51.660;6.674;2022-09-01T13:38:13;28.00;28.70
11700;DHT22;5906;51.660;6.674;2022-09-01T13:40:43;28.10;24.80
11700;DHT22;5906;51.660;6.674;2022-09-01T13:43:12;28.20;27.10
11700;DHT22;5906;51.660;6.674;2022-09-01T13:45:41;28.40;29.10
11700;DHT22;5906;51.660;6.674;2022-09-01T13:48:11;28.50;29.70
11700;DHT22;5906;51.660;6.674;2022-09-01T13:50:46;28.60;30.40
11700;DHT22;5906;51.660;6.674;2022-09-01T13:53:38;28.70;32.50
11700;DHT22;5906;51.660;6.674;2022-09-01T13:56:04;28.50;28.50
11700;DHT22;5906;51.660;6.674;2022-09-01T13:58:31;28.40;31.50
11700;DHT22;5906;51.660;6.674;2022-09-01T14:00:58;28.40;29.80
11700;DHT22;5906;51.660;6.674;2022-09-01T14:03:25;28.40;26.40
11700;DHT22;5906;51.660;6.674;2022-09-01T14:05:53;28.10;28.10
11700;DHT22;5906;51.660;6.674;2022-09-01T14:08:21;28.00;29.00
11700;DHT22;5906;51.660;6.674;2022-09-01T14:10:50;27.80;30.40
11700;DHT22;5906;51.660;6.674;2022-09-01T14:13:19;28.00;30.60
11700;DHT22;5906;51.660;6.674;2022-09-01T14:15:47;27.90;35.50
11700;DHT22;5906;51.660;6.674;2022-09-01T14:18:15;28.00;33.90
11700;DHT22;5906;51.660;6.674;2022-09-01T14:20:47;28.00;36.00
11700;DHT22;5906;51.660;6.674;2022-09-01T14:23:17;27.90;32.90
11700;DHT22;5906;51.660;6.674;2022-09-01T14:25:47;27.50;33.60
11700;DHT22;5906;51.660;6.674;2022-09-01T14:28:14;27.40;35.40
11700;DHT22;5906;51.660;6.674;2022-09-01T14:30:46;27.50;35.00
11700;DHT22;5906;51.660;6.674;2022-09-01T14:33:13;27.60;32.40
11700;DHT22;5906;51.660;6.674;2022-09-01T14:35:44;27.60;34.40
11700;DHT22;5906;51.660;6.674;2022-09-01T14:38:12;27.60;34.50
11700;DHT22;5906;51.660;6.674;2022-09-01T14:40:40;27.60;33.10
11700;DHT22;5906;51.660;6.674;2022-09-01T14:43:09;27.50;32.20
11700;DHT22;5906;51.660;6.674;2022-09-01T14:45:37;27.50;33.20
11700;DHT22;5906;51.660;6.674;2022-09-01T14:48:04;27.40;33.80
11700;DHT22;5906;51.660;6.674;2022-09-01T14:50:31;27.20;33.10
11700;DHT22;5906;51.660;6.674;2022-09-01T14:53:00;27.20;35.60
11700;DHT22;5906;51.660;6.674;2022-09-01T14:55:29;27.30;33.70
11700;DHT22;5906;51.660;6.674;2022-09-01T14:57:56;27.40;33.50
11700;DHT22;5906;51.660;6.674;2022-09-01T15:00:24;27.40;32.40
11700;DHT22;5906;51.660;6.674;2022-09-01T15:02:51;27.20;32.70
11700;DHT22;5906;51.660;6.674;2022-09-01T15:05:18;27.20;35.20
11700;DHT22;5906;51.660;6.674;2022-09-01T15:07:46;27.40;34.10
11700;DHT22;5906;51.660;6.674;2022-09-01T15:10:16;27.50;31.10
11700;DHT22;5906;51.660;6.674;2022-09-01T15:12:52;27.60;31.20
11700;DHT22;5906;51.660;6.674;2022-09-01T15:15:19;27.50;35.80
11700;DHT22;5906;51.660;6.674;2022-09-01T15:17:46;27.60;32.40
11700;DHT22;5906;51.660;6.674;2022-09-01T15:20:13;27.80;33.30
11700;DHT22;5906;51.660;6.674;2022-09-01T15:22:59;28.00;32.80
11700;DHT22;5906;51.660;6.674;2022-09-01T15:25:26;27.70;32.30
11700;DHT22;5906;51.660;6.674;2022-09-01T15:27:53;27.70;31.60
11700;DHT22;5906;51.660;6.674;2022-09-01T15:30:20;27.70;30.20
11700;DHT22;5906;51.660;6.674;2022-09-01T15:32:50;27.70;32.10
11700;DHT22;5906;51.660;6.674;2022-09-01T15:35:18;27.60;30.80
11700;DHT22;5906;51.660;6.674;2022-09-01T15:37:50;27.40;31.90
11700;DHT22;5906;51.660;6.674;2022-09-01T15:40:18;27.30;38.00
11700;DHT22;5906;51.660;6.674;2022-09-01T15:42:45;27.10;32.90
11700;DHT22;5906;51.660;6.674;2022-09-01T15:45:14;27.00;33.30
11700;DHT22;5906;51.660;6.674;2022-09-01T15:47:42;26.80;33.30
11700;DHT22;5906;51.660;6.674;2022-09-01T15:50:12;26.80;33.70
11700;DHT22;5906;51.660;6.674;2022-09-01T15:55:21;26.60;32.00
11700;DHT22;5906;51.660;6.674;2022-09-01T15:57:48;26.50;34.00
11700;DHT22;5906;51.660;6.674;2022-09-01T16:00:16;26.50;32.10
11700;DHT22;5906;51.660;6.674;2022-09-01T16:02:43;26.50;32.20
11700;DHT22;5906;51.660;6.674;2022-09-01T16:05:11;26.50;31.00
11700;DHT22;5906;51.660;6.674;2022-09-01T16:07:39;26.40;30.70
11700;DHT22;5906;51.660;6.674;2022-09-01T16:10:07;26.50;33.50
11700;DHT22;5906;51.660;6.674;2022-09-01T16:12:38;26.50;33.70
11700;DHT22;5906;51.660;6.674;2022-09-01T16:15:06;26.40;34.40
11700;DHT22;5906;51.660;6.674;2022-09-01T16:17:46;26.10;31.70
11700;DHT22;5906;51.660;6.674;2022-09-01T16:20:23;26.10;32.90
11700;DHT22;5906;51.660;6.674;2022-09-01T16:23:14;25.90;33.20
11700;DHT22;5906;51.660;6.674;2022-09-01T16:25:42;25.80;30.00
11700;DHT22;5906;51.660;6.674;2022-09-01T16:30:55;25.60;35.50
11700;DHT22;5906;51.660;6.674;2022-09-01T16:33:24;25.70;36.80
11700;DHT22;5906;51.660;6.674;2022-09-01T16:38:46;25.70;34.20
11700;DHT22;5906;51.660;6.674;2022-09-01T16:41:31;25.80;35.70
11700;DHT22;5906;51.660;6.674;2022-09-01T16:47:34;25.80;36.10
11700;DHT22;5906;51.660;6.674;2022-09-01T16:56:06;25.50;34.00
11700;DHT22;5906;51.660;6.674;2022-09-01T16:58:55;25.50;34.00
11700;DHT22;5906;51.660;6.674;2022-09-01T17:14:57;24.80;32.90
11700;DHT22;5906;51.660;6.674;2022-09-01T17:17:53;24.80;30.50
11700;DHT22;5906;51.660;6.674;2022-09-01T17:20:24;24.70;35.50
11700;DHT22;5906;51.660;6.674;2022-09-01T17:22:57;24.60;35.10
11700;DHT22;5906;51.660;6.674;2022-09-01T17:25:32;24.60;34.60
11700;DHT22;5906;51.660;6.674;2022-09-01T17:28:09;24.60;35.10
11700;DHT22;5906;51.660;6.674;2022-09-01T17:31:25;24.60;32.70
11700;DHT22;5906;51.660;6.674;2022-09-01T17:36:38;24.40;31.80
11700;DHT22;5906;51.660;6.674;2022-09-01T17:42:02;24.30;32.40
11700;DHT22;5906;51.660;6.674;2022-09-01T17:44:55;24.20;30.40
11700;DHT22;5906;51.660;6.674;2022-09-01T17:47:34;24.10;33.70
11700;DHT22;5906;51.660;6.674;2022-09-01T17:50:09;24.00;32.70
11700;DHT22;5906;51.660;6.674;2022-09-01T17:55:50;23.80;33.10
11700;DHT22;5906;51.660;6.674;2022-09-01T18:01:42;23.60;33.50
11700;DHT22;5906;51.660;6.674;2022-09-01T18:07:08;23.30;32.70
11700;DHT22;5906;51.660;6.674;2022-09-01T18:09:42;23.30;33.90
11700;DHT22;5906;51.660;6.674;2022-09-01T18:12:15;23.10;34.10
11700;DHT22;5906;51.660;6.674;2022-09-01T18:15:00;23.00;34.50